Time;durP1;ratioP1;P1;durP2;ratioP2;P2;SDS_P1;SDS_P2;PMS_P1;PMS_P2;Temp;Humidity;BMP_temperature;BMP_pressure;BME280_temperature;BME280_humidity;BME280_pressure;Samples;Min_cycle;Max_cycle;Signal;HPM_P1;HPM_P2
2022/12/12 00:00:01;;;;;;;2.42;1.50;;;;;;;-3.18;33.29;91272.94;5031846;28;20067;-74
2022/12/12 00:02:26;;;;;;;2.42;1.42;;;;;;;-3.27;32.95;91272.53;5015479;28;20507;-74
2022/12/12 00:04:56;;;;;;;2.20;1.30;;;;;;;-3.37;33.34;91277.50;5047618;28;20090;-74
2022/12/12 00:07:21;;;;;;;1.65;1.20;;;;;;;-3.45;33.46;91278.66;5069140;28;20032;-74
2022/12/12 00:09:47;;;;;;;2.40;1.40;;;;;;;-3.49;33.70;91281.91;5063226;28;20078;-74
2022/12/12 00:12:13;;;;;;;2.42;1.20;;;;;;;-3.57;34.41;91281.28;5051879;28;20107;-74
2022/12/12 00:14:38;;;;;;;6.43;1.88;;;;;;;-3.63;34.71;91282.19;5067554;28;20028;-74
2022/12/12 00:17:04;;;;;;;2.55;1.35;;;;;;;-3.63;33.52;91282.19;5035589;28;20147;-74
2022/12/12 00:19:30;;;;;;;1.65;1.25;;;;;;;-3.67;33.45;91291.34;5073179;28;20029;-74
2022/12/12 00:21:55;;;;;;;4.25;1.80;;;;;;;-3.69;33.02;91287.44;5071114;28;20028;-74
2022/12/12 00:24:21;;;;;;;2.78;1.50;;;;;;;-3.70;32.87;91286.66;5038203;28;20032;-74
2022/12/12 00:26:46;;;;;;;2.40;1.50;;;;;;;-3.68;34.30;91287.22;5072570;28;20566;-74
2022/12/12 00:29:12;;;;;;;3.85;1.60;;;;;;;-3.76;35.11;91287.56;5036562;28;20036;-73
2022/12/12 00:31:38;;;;;;;3.05;1.65;;;;;;;-3.81;34.68;91300.28;5055033;28;20033;-73
2022/12/12 00:34:04;;;;;;;3.10;1.38;;;;;;;-3.82;34.34;91296.94;5038189;28;20406;-74
2022/12/12 00:36:30;;;;;;;2.30;1.30;;;;;;;-3.86;35.05;91298.41;5038424;28;20029;-74
2022/12/12 00:38:57;;;;;;;2.83;1.48;;;;;;;-3.89;34.95;91303.97;5072513;28;20039;-73
2022/12/12 00:41:23;;;;;;;3.28;1.48;;;;;;;-3.95;34.81;91304.13;5072040;28;20680;-74
2022/12/12 00:43:49;;;;;;;2.05;1.52;;;;;;;-3.98;34.32;91306.13;5072211;28;20032;-74
2022/12/12 00:46:17;;;;;;;3.15;1.48;;;;;;;-4.03;34.66;91307.78;5054413;28;20410;-74
2022/12/12 00:48:43;;;;;;;3.22;1.48;;;;;;;-4.06;35.50;91303.91;5054709;28;20044;-74
2022/12/12 00:51:14;;;;;;;1.98;1.33;;;;;;;-4.09;35.52;91301.81;5049167;28;20060;-74
2022/12/12 00:53:39;;;;;;;3.47;1.48;;;;;;;-4.12;35.61;91304.03;5072533;28;20098;-74
2022/12/12 00:56:06;;;;;;;1.80;1.23;;;;;;;-4.14;36.69;91306.81;5054719;28;20032;-74
2022/12/12 00:58:32;;;;;;;2.22;1.40;;;;;;;-4.14;36.53;91306.81;5037802;28;20341;-74
2022/12/12 01:01:05;;;;;;;1.77;1.33;;;;;;;-4.14;37.18;91311.16;5071838;28;20025;-74
2022/12/12 01:03:39;;;;;;;3.03;1.50;;;;;;;-4.18;38.16;91321.06;5054725;28;20060;-74
2022/12/12 01:06:06;;;;;;;2.92;1.60;;;;;;;-4.19;37.21;91320.28;5071637;28;20122;-73
2022/12/12 01:08:32;;;;;;;3.13;1.60;;;;;;;-4.21;37.13;91326.59;5072399;28;20075;-74
2022/12/12 01:10:58;;;;;;;3.55;1.60;;;;;;;-4.23;37.23;91323.50;5053948;28;20032;-73
2022/12/12 01:13:24;;;;;;;2.90;1.70;;;;;;;-4.26;37.05;91336.72;5054268;28;20493;-74
2022/12/12 01:15:50;;;;;;;3.88;1.70;;;;;;;-4.32;37.57;91329.94;5047872;28;20108;-73
2022/12/12 01:18:16;;;;;;;4.72;1.90;;;;;;;-4.34;37.27;91329.41;5052971;28;20127;-74
2022/12/12 01:20:42;;;;;;;5.38;1.95;;;;;;;-4.36;38.15;91344.97;5054345;28;20040;-74
2022/12/12 01:23:07;;;;;;;3.83;1.75;;;;;;;-4.38;37.92;91341.84;5033609;28;20036;-73
2022/12/12 01:25:33;;;;;;;5.00;1.92;;;;;;;-4.39;38.97;91340.28;5066670;28;20051;-74
2022/12/12 01:27:59;;;;;;;3.40;1.83;;;;;;;-4.38;39.38;91346.97;5071044;28;20428;-73
2022/12/12 01:30:25;;;;;;;5.35;1.95;;;;;;;-4.40;40.93;91344.63;5053469;28;20025;-73
2022/12/12 01:32:51;;;;;;;4.20;2.03;;;;;;;-4.44;41.91;91358.06;5070741;28;20474;-74
2022/12/12 01:35:17;;;;;;;3.95;1.90;;;;;;;-4.48;41.93;91357.75;5054044;28;20074;-74
2022/12/12 01:37:43;;;;;;;3.83;1.88;;;;;;;-4.51;41.13;91350.50;5072192;28;20055;-74
2022/12/12 01:40:15;;;;;;;4.22;2.00;;;;;;;-4.52;41.32;91358.41;5052057;28;20182;-74
2022/12/12 01:42:41;;;;;;;2.97;1.70;;;;;;;-4.53;41.58;91364.50;5071655;28;20039;-73
2022/12/12 01:45:07;;;;;;;3.35;1.65;;;;;;;-4.57;41.41;91360.84;5036500;28;20032;-74
2022/12/12 01:47:33;;;;;;;3.63;1.60;;;;;;;-4.57;40.11;91358.28;5035035;28;20102;-74
2022/12/12 01:50:07;;;;;;;4.25;1.80;;;;;;;-4.62;40.33;91352.06;5053528;28;20478;-74
2022/12/12 01:52:47;;;;;;;4.05;2.05;;;;;;;-4.64;40.30;91363.50;5053334;28;20036;-73
2022/12/12 01:55:22;;;;;;;3.63;1.77;;;;;;;-4.67;40.90;91372.38;5071211;28;20040;-74
2022/12/12 01:57:52;;;;;;;3.40;1.67;;;;;;;-4.71;40.53;91366.16;5070618;28;20074;-73
2022/12/12 02:00:19;;;;;;;2.38;1.30;;;;;;;-4.72;39.69;91361.28;5053236;28;20039;-74
2022/12/12 02:02:46;;;;;;;5.15;1.67;;;;;;;-4.75;39.65;91366.81;5053333;28;20039;-73
2022/12/12 02:05:37;;;;;;;4.10;1.60;;;;;;;-4.77;39.58;91368.81;5053080;28;20498;-74
2022/12/12 02:08:04;;;;;;;4.97;2.03;;;;;;;-4.79;40.07;91375.94;5069115;28;20063;-73
2022/12/12 02:10:30;;;;;;;2.92;1.50;;;;;;;-4.82;40.01;91366.94;5034952;28;20028;-74
2022/12/12 02:13:12;;;;;;;1.67;1.33;;;;;;;-4.85;40.50;91373.25;5069473;28;20045;-73
2022/12/12 02:15:47;;;;;;;3.95;1.80;;;;;;;-4.87;41.49;91365.03;5069284;28;20028;-74
2022/12/12 02:18:21;;;;;;;5.53;1.60;;;;;;;-4.91;41.38;91363.94;5069421;28;20035;-74
2022/12/12 02:20:49;;;;;;;2.90;1.38;;;;;;;-4.91;40.12;91369.06;5070982;28;20039;-73
2022/12/12 02:23:32;;;;;;;3.55;1.70;;;;;;;-4.91;38.83;91363.94;5070602;28;20390;-74
2022/12/12 02:26:22;;;;;;;1.58;1.23;;;;;;;-4.90;38.82;91360.38;5071451;28;20128;-74
2022/12/12 02:28:57;;;;;;;2.35;1.40;;;;;;;-4.93;39.14;91371.03;5053222;28;20077;-74
2022/12/12 02:31:58;;;;;;;1.75;1.27;;;;;;;-4.96;38.97;91368.91;5070561;28;20021;-73
2022/12/12 02:34:33;;;;;;;1.52;1.25;;;;;;;-4.97;38.25;91375.03;5032995;28;20049;-74
2022/12/12 02:37:26;;;;;;;1.55;1.30;;;;;;;-5.00;39.13;91375.44;5070649;28;20033;-74
2022/12/12 02:40:03;;;;;;;2.80;1.35;;;;;;;-5.03;38.96;91370.78;5052876;28;20371;-74
2022/12/12 02:43:24;;;;;;;2.05;1.40;;;;;;;-5.05;38.65;91367.66;5052685;28;20111;-73
2022/12/12 02:45:59;;;;;;;2.50;1.50;;;;;;;-5.03;39.26;91373.34;5046732;28;20115;-73
2022/12/12 02:48:29;;;;;;;1.98;1.30;;;;;;;-5.06;39.51;91369.47;5051514;28;20482;-73
2022/12/12 02:50:58;;;;;;;2.75;1.58;;;;;;;-5.09;39.86;91366.53;5070374;28;20025;-74
2022/12/12 02:53:23;;;;;;;2.53;1.33;;;;;;;-5.12;39.82;91365.22;5068018;28;20040;-74
2022/12/12 02:55:59;;;;;;;2.90;1.63;;;;;;;-5.11;39.92;91371.09;5052147;28;20394;-74
2022/12/12 02:58:26;;;;;;;2.92;1.40;;;;;;;-5.10;40.61;91359.91;5037068;28;20047;-74
2022/12/12 03:01:11;;;;;;;2.20;1.30;;;;;;;-5.12;40.38;91362.66;5070541;28;20040;-74
2022/12/12 03:10:08;;;;;;;2.92;1.40;;;;;;;-5.18;40.50;91357.66;5069908;28;20257;-74
2022/12/12 03:12:59;;;;;;;3.67;1.60;;;;;;;-5.18;40.06;91355.88;5070314;28;20090;-74
2022/12/12 03:15:44;;;;;;;2.70;1.58;;;;;;;-5.15;39.00;91357.25;5068322;28;20114;-74
2022/12/12 03:18:20;;;;;;;2.20;1.40;;;;;;;-5.15;39.82;91354.69;5049671;28;20028;-74
2022/12/12 03:20:55;;;;;;;2.10;1.38;;;;;;;-5.17;40.15;91357.44;5032765;28;20040;-74
2022/12/12 03:23:26;;;;;;;2.05;1.30;;;;;;;-5.21;39.88;91360.66;5032186;28;20070;-74
2022/12/12 03:26:05;;;;;;;4.78;1.60;;;;;;;-5.25;40.54;91358.56;5032358;28;20033;-74
2022/12/12 03:28:45;;;;;;;4.03;1.83;;;;;;;-5.28;40.78;91356.41;5067067;28;20029;-74
2022/12/12 03:31:14;;;;;;;2.75;1.60;;;;;;;-5.27;41.49;91360.53;5069634;28;20114;-74
2022/12/12 03:33:45;;;;;;;4.47;1.90;;;;;;;-5.29;41.75;91361.72;5051312;28;20017;-74
2022/12/12 03:36:36;;;;;;;2.67;1.65;;;;;;;-5.27;41.22;91359.75;5052037;28;20041;-74
2022/12/12 03:39:09;;;;;;;3.22;1.63;;;;;;;-5.29;40.04;91357.44;5069831;28;20111;-74
2022/12/12 03:41:37;;;;;;;;;;;;;;;-5.29;40.20;91362.53;5035909;28;20036;-74
2022/12/12 03:44:10;;;;;;;1.65;1.25;;;;;;;-5.29;39.55;91366.81;5069230;28;19916;-74
2022/12/12 03:46:50;;;;;;;;;;;;;;;-5.29;40.54;91366.81;5061310;28;20036;-74
2022/12/12 03:49:26;;;;;;;1.55;1.17;;;;;;;-5.31;41.21;91364.50;5031717;28;19919;-74
2022/12/12 03:52:05;;;;;;;3.50;1.90;;;;;;;-5.30;40.53;91362.72;5032553;28;20033;-74
2022/12/12 03:54:45;;;;;;;2.83;1.63;;;;;;;-5.33;40.13;91361.41;5056022;28;20482;-74
2022/12/12 03:57:41;;;;;;;2.58;1.55;;;;;;;-5.34;40.21;91364.94;5056590;28;20068;-74
2022/12/12 04:00:12;;;;;;;3.13;1.70;;;;;;;-5.35;39.91;91362.63;5052461;28;20044;-73
2022/12/12 04:03:07;;;;;;;3.17;1.65;;;;;;;-5.38;40.46;91360.47;5053934;28;20102;-74
2022/12/12 04:08:34;;;;;;;3.80;1.40;;;;;;;-5.33;40.81;91366.50;5073119;28;20085;-74
2022/12/12 04:14:08;;;;;;;3.88;1.70;;;;;;;-5.39;40.82;91372.47;5052225;28;20070;-73
2022/12/12 04:16:40;;;;;;;4.93;1.90;;;;;;;-5.43;41.51;91368.78;5062944;28;20037;-73
2022/12/12 04:23:14;;;;;;;3.22;1.60;;;;;;;-5.46;41.27;91371.78;5035289;28;20083;-73
2022/12/12 04:25:07;;;;;;;2.58;1.40;;;;;;;-5.45;41.73;91379.22;5040439;28;20033;-74
2022/12/12 04:27:39;;;;;;;2.90;1.40;;;;;;;-5.44;42.07;91380.75;5073305;28;20047;-75
2022/12/12 04:30:14;;;;;;;2.63;1.33;;;;;;;-5.41;42.38;91381.34;5055406;28;20509;-73
2022/12/12 04:33:02;;;;;;;3.00;1.58;;;;;;;-5.39;42.77;91384.44;5056211;28;20036;-73
2022/12/12 04:35:37;;;;;;;1.58;1.02;;;;;;;-5.39;42.34;91384.44;5054224;28;20383;-73
2022/12/12 04:38:07;;;;;;;3.70;1.73;;;;;;;-5.37;44.29;91387.56;5072743;28;20028;-73
2022/12/12 04:40:41;;;;;;;3.00;1.60;;;;;;;-5.39;42.70;91387.78;5054780;28;20481;-74
2022/12/12 04:43:28;;;;;;;2.55;1.45;;;;;;;-5.39;41.97;91387.00;5037962;28;20062;-74
2022/12/12 04:46:05;;;;;;;2.13;1.35;;;;;;;-5.40;41.89;91380.31;5069115;28;20050;-74
2022/12/12 04:48:41;;;;;;;2.88;1.30;;;;;;;-5.33;41.02;91386.91;5052942;28;20490;-73
2022/12/12 04:51:09;;;;;;;2.75;1.40;;;;;;;-5.34;41.01;91387.88;5072551;28;20029;-73
2022/12/12 04:53:41;;;;;;;2.72;1.50;;;;;;;-5.31;40.96;91391.81;5087254;28;20496;-74
2022/12/12 04:56:11;;;;;;;2.35;1.35;;;;;;;-5.29;40.84;91392.34;5090799;28;20040;-73
2022/12/12 04:58:37;;;;;;;3.17;1.48;;;;;;;-5.28;39.98;91389.59;5074256;28;20036;-73
2022/12/12 05:01:14;;;;;;;2.13;1.40;;;;;;;-5.24;39.83;91383.06;5093124;28;20036;-74
2022/12/12 05:03:51;;;;;;;2.47;1.50;;;;;;;-5.21;40.38;91388.72;5090685;28;20458;-73
2022/12/12 05:06:40;;;;;;;2.65;1.50;;;;;;;-5.19;40.27;91390.06;5091166;28;20516;-72
2022/12/12 05:09:07;;;;;;;1.50;1.20;;;;;;;-5.20;40.07;91393.63;5091400;28;20031;-73
2022/12/12 05:11:33;;;;;;;1.52;1.10;;;;;;;-5.22;41.07;91398.16;5092345;28;20481;-73
2022/12/12 05:13:59;;;;;;;3.42;1.42;;;;;;;-5.24;40.08;91400.91;5074646;28;20036;-73
2022/12/12 05:16:31;;;;;;;2.42;1.42;;;;;;;-5.23;40.49;91402.47;5086900;28;20554;-73
2022/12/12 05:18:58;;;;;;;1.95;1.30;;;;;;;-5.24;41.04;91406.00;5089680;28;20036;-73
2022/12/12 05:21:24;;;;;;;2.00;1.27;;;;;;;-5.25;41.29;91403.66;5090757;28;20031;-73
2022/12/12 05:23:49;;;;;;;2.35;1.50;;;;;;;-5.23;40.79;91401.69;5092692;28;20043;-73
2022/12/12 05:26:22;;;;;;;2.65;1.35;;;;;;;-5.23;40.76;91407.56;5074191;28;20421;-73
2022/12/12 05:28:48;;;;;;;6.72;1.40;;;;;;;-5.27;39.86;91403.09;5090184;28;20078;-73
2022/12/12 05:31:13;;;;;;;2.63;1.67;;;;;;;-5.21;40.58;91414.25;5092200;28;20024;-73
2022/12/12 05:33:39;;;;;;;1.27;1.10;;;;;;;-5.25;40.52;91414.69;5092030;28;20037;-73
2022/12/12 05:36:05;;;;;;;2.47;1.35;;;;;;;-5.26;39.83;91420.00;5092037;28;20408;-73
2022/12/12 05:38:31;;;;;;;1.63;1.08;;;;;;;-5.30;39.60;91418.88;5088927;28;20024;-73
2022/12/12 05:40:56;;;;;;;1.25;1.13;;;;;;;-5.31;39.33;91420.63;5090635;28;20512;-73
2022/12/12 05:43:22;;;;;;;2.38;1.13;;;;;;;-5.31;39.34;91418.09;5086884;28;20394;-73
2022/12/12 05:45:48;;;;;;;1.13;1.00;;;;;;;-5.32;39.71;91419.06;5077746;28;20050;-73
2022/12/12 05:48:15;;;;;;;2.58;1.23;;;;;;;-5.34;40.52;91415.94;5085771;28;20055;-74
2022/12/12 05:50:44;;;;;;;3.05;1.17;;;;;;;-5.38;40.01;91417.41;5089160;28;20076;-72
2022/12/12 05:53:10;;;;;;;2.20;1.30;;;;;;;-5.41;39.72;91419.59;5089764;28;20078;-74
2022/12/12 05:55:36;;;;;;;2.55;1.50;;;;;;;-5.42;40.55;91428.25;5060638;28;20352;-73
2022/12/12 05:58:02;;;;;;;1.58;1.10;;;;;;;-5.45;41.30;91429.44;5066707;28;20093;-74
2022/12/12 06:00:27;;;;;;;2.10;1.38;;;;;;;-5.49;40.77;91429.09;5082855;28;20028;-73
2022/12/12 06:02:53;;;;;;;1.67;1.23;;;;;;;-5.49;40.51;91435.97;5067775;28;20411;-73
2022/12/12 06:05:19;;;;;;;1.20;1.10;;;;;;;-5.51;40.80;91431.09;5088955;28;20039;-74
2022/12/12 06:07:44;;;;;;;2.03;1.30;;;;;;;-5.51;41.60;91428.53;5083321;28;20115;-74
2022/12/12 06:10:10;;;;;;;5.70;2.03;;;;;;;-5.50;41.84;91424.97;5071848;28;20379;-72
2022/12/12 06:12:37;;;;;;;4.15;2.00;;;;;;;-5.50;40.93;91434.41;5077969;28;20032;-73
2022/12/12 06:15:03;;;;;;;3.13;1.60;;;;;;;-5.52;40.91;91436.38;5105487;28;20561;-72
2022/12/12 06:17:29;;;;;;;2.70;1.55;;;;;;;-5.55;41.04;91429.19;5089943;28;20028;-73
2022/12/12 06:19:54;;;;;;;2.72;1.75;;;;;;;-5.56;41.29;91435.25;5090121;28;20512;-73
2022/12/12 06:22:21;;;;;;;1.83;1.33;;;;;;;-5.58;41.48;91440.59;5089554;28;20512;-72
2022/12/12 06:24:47;;;;;;;2.65;1.50;;;;;;;-5.60;41.97;91437.47;5086685;28;20478;-73
2022/12/12 06:27:12;;;;;;;4.75;1.83;;;;;;;-5.61;42.24;91437.69;5089233;28;20037;-75
2022/12/12 06:29:38;;;;;;;3.83;1.98;;;;;;;-5.61;42.52;91435.13;5074753;28;20383;-74
2022/12/12 06:32:04;;;;;;;14.77;3.83;;;;;;;-5.61;42.13;91435.13;5083743;28;20534;-73
2022/12/12 06:34:29;;;;;;;32.03;7.97;;;;;;;-5.62;41.67;91439.47;5087775;28;20028;-73
2022/12/12 06:36:55;;;;;;;36.47;9.25;;;;;;;-5.60;42.08;91444.34;5072910;28;20028;-73
2022/12/12 06:39:21;;;;;;;23.40;8.40;;;;;;;-5.62;42.67;91456.53;5082190;28;20040;-73
2022/12/12 06:41:46;;;;;;;16.33;6.30;;;;;;;-5.64;41.78;91451.63;5083491;28;20038;-73
2022/12/12 06:44:12;;;;;;;12.65;4.28;;;;;;;-5.66;42.20;91459.50;5085687;28;20040;-73
2022/12/12 06:46:37;;;;;;;7.10;3.25;;;;;;;-5.71;42.66;91461.91;5072688;28;20055;-73
2022/12/12 06:49:08;;;;;;;3.70;2.00;;;;;;;-5.72;43.26;91462.91;5085059;28;20044;-74
2022/12/12 06:51:37;;;;;;;6.72;1.80;;;;;;;-5.72;43.81;91469.75;5087907;28;20050;-75
2022/12/12 06:54:03;;;;;;;2.45;1.40;;;;;;;-5.74;44.16;91472.53;5088428;28;20040;-75
2022/12/12 06:56:29;;;;;;;1.83;1.30;;;;;;;-5.72;44.48;91470.56;5081792;28;20506;-75
2022/12/12 06:58:57;;;;;;;2.70;1.50;;;;;;;-5.72;44.26;91472.31;5077734;28;20047;-75
2022/12/12 07:01:24;;;;;;;3.22;1.73;;;;;;;-5.69;43.68;91475.22;5077811;28;20397;-74
2022/12/12 07:03:50;;;;;;;2.97;1.80;;;;;;;-5.67;42.93;91475.03;5078950;28;20041;-75
2022/12/12 07:06:19;;;;;;;4.38;1.55;;;;;;;-5.65;42.32;91478.13;5086305;28;20032;-75
2022/12/12 07:08:45;;;;;;;2.88;1.63;;;;;;;-5.62;41.82;91482.03;5083819;28;20089;-75
2022/12/12 07:11:14;;;;;;;3.42;1.50;;;;;;;-5.60;41.65;91473.19;5071387;28;20437;-75
2022/12/12 07:13:41;;;;;;;2.08;1.30;;;;;;;-5.56;42.16;91483.72;5096988;28;20036;-75
2022/12/12 07:16:07;;;;;;;2.67;1.42;;;;;;;-5.55;42.11;91485.28;5086602;28;20087;-75
2022/12/12 07:18:33;;;;;;;6.25;1.88;;;;;;;-5.56;42.23;91488.81;5061683;28;20290;-76
2022/12/12 07:21:06;;;;;;;3.20;1.90;;;;;;;-5.13;41.77;91486.16;5091913;28;20505;-76
2022/12/12 07:23:32;;;;;;;5.45;2.25;;;;;;;-3.85;41.51;91480.72;5082128;28;20036;-77
2022/12/12 07:25:57;;;;;;;4.38;2.00;;;;;;;-2.26;38.85;91478.56;5070082;28;20335;-77
2022/12/12 07:28:23;;;;;;;6.18;2.50;;;;;;;-0.80;36.63;91479.16;5084830;28;20528;-75
2022/12/12 07:30:49;;;;;;;4.45;2.00;;;;;;;0.50;33.75;91481.50;5094006;28;20042;-76
2022/12/12 07:33:16;;;;;;;3.38;1.88;;;;;;;1.75;32.12;91485.03;5095537;28;20347;-77
2022/12/12 07:35:42;;;;;;;2.60;1.50;;;;;;;2.58;28.66;91481.38;5095360;28;20039;-82
2022/12/12 07:38:09;;;;;;;2.90;1.50;;;;;;;3.68;27.95;91481.50;5076358;28;20086;-76
2022/12/12 07:40:35;;;;;;;3.70;1.42;;;;;;;4.20;25.77;91480.09;5082236;28;20031;-76
2022/12/12 07:43:01;;;;;;;2.80;1.38;;;;;;;4.90;25.55;91484.91;5092795;28;20089;-76
2022/12/12 07:45:28;;;;;;;2.70;1.30;;;;;;;5.51;24.46;91488.63;5073761;28;20032;-76
2022/12/12 07:47:54;;;;;;;4.80;1.58;;;;;;;5.94;23.21;91480.81;5074719;28;20029;-76
2022/12/12 07:50:20;;;;;;;2.40;1.30;;;;;;;6.65;23.12;91489.34;5085702;28;20131;-76
2022/12/12 07:52:46;;;;;;;6.15;1.65;;;;;;;7.42;23.19;91489.81;5073116;28;20044;-76
2022/12/12 07:55:12;;;;;;;2.58;1.35;;;;;;;8.04;22.67;91484.88;5086536;28;20035;-77
2022/12/12 07:57:40;;;;;;;3.38;1.50;;;;;;;8.60;21.71;91487.28;5093821;28;20044;-76
2022/12/12 08:00:08;;;;;;;6.18;2.42;;;;;;;8.80;21.23;91484.19;5077042;28;20067;-77
2022/12/12 08:02:37;;;;;;;6.35;3.00;;;;;;;9.59;20.84;91493.88;5093963;28;20032;-77
2022/12/12 08:05:03;;;;;;;7.18;3.30;;;;;;;9.40;20.63;91495.22;5095127;28;20409;-77
2022/12/12 08:07:29;;;;;;;6.10;3.10;;;;;;;10.02;20.35;91500.28;5094951;28;20086;-77
2022/12/12 08:09:54;;;;;;;7.32;3.55;;;;;;;9.89;20.08;91498.56;5094849;28;20024;-77
2022/12/12 08:12:20;;;;;;;8.90;4.10;;;;;;;10.95;19.77;91503.50;5093103;28;20036;-77
2022/12/12 08:14:45;;;;;;;5.00;2.40;;;;;;;12.13;18.97;91508.06;5094820;28;20502;-77
2022/12/12 08:17:11;;;;;;;4.40;2.70;;;;;;;11.37;19.93;91511.50;5095219;28;20152;-77
2022/12/12 08:19:37;;;;;;;5.93;2.17;;;;;;;11.92;19.80;91508.06;5093489;28;20067;-77
2022/12/12 08:22:02;;;;;;;5.35;2.53;;;;;;;11.86;20.90;91520.53;5060074;28;20036;-77
2022/12/12 08:24:28;;;;;;;5.85;2.63;;;;;;;11.96;19.94;91510.84;5074273;28;20402;-77
2022/12/12 08:26:54;;;;;;;4.70;2.50;;;;;;;11.95;20.38;91517.16;5072923;28;20506;-77
2022/12/12 08:29:20;;;;;;;6.40;3.17;;;;;;;13.20;19.74;91521.56;5079029;28;20432;-77
2022/12/12 08:31:46;;;;;;;7.95;3.40;;;;;;;13.20;18.87;91515.53;5093351;28;20028;-77
2022/12/12 08:34:11;;;;;;;6.32;3.30;;;;;;;11.56;19.83;91527.63;5094633;28;20043;-77
2022/12/12 08:36:37;;;;;;;5.43;2.70;;;;;;;10.76;20.29;91528.16;5082241;28;20036;-82
2022/12/12 08:39:09;;;;;;;5.72;3.20;;;;;;;10.87;21.30;91531.22;5078720;28;20101;-77
2022/12/12 08:41:36;;;;;;;;;;;;;;;10.34;22.84;91538.31;5075100;28;20024;-75
2022/12/12 08:44:03;;;;;;;3.70;2.10;;;;;;;9.88;23.85;91538.84;5086726;28;19912;-75
2022/12/12 08:46:29;;;;;;;4.97;2.50;;;;;;;9.55;23.57;91534.00;5084525;28;20056;-77
2022/12/12 08:48:54;;;;;;;5.07;2.70;;;;;;;8.59;24.50;91540.53;5073445;28;20437;-76
2022/12/12 08:51:20;;;;;;;9.82;3.40;;;;;;;7.77;26.92;91553.47;5073719;28;20072;-75
2022/12/12 08:53:47;;;;;;;6.03;3.00;;;;;;;7.66;27.96;91552.88;5073310;28;20058;-75
2022/12/12 08:56:14;;;;;;;7.57;3.10;;;;;;;6.78;29.61;91555.47;5073552;28;20038;-75
2022/12/12 08:58:40;;;;;;;8.13;3.08;;;;;;;5.85;30.77;91555.19;5073398;28;20115;-75
2022/12/12 09:01:23;;;;;;;10.15;3.10;;;;;;;5.64;31.38;91567.66;5073405;28;20506;-76
2022/12/12 09:03:52;;;;;;;7.15;3.15;;;;;;;4.70;32.86;91573.25;5073307;28;20546;-75
2022/12/12 09:06:18;;;;;;;7.85;2.55;;;;;;;4.56;31.13;91570.53;5071841;28;20035;-75
2022/12/12 09:08:44;;;;;;;8.90;2.75;;;;;;;4.36;31.86;91568.84;5066858;28;20024;-75
2022/12/12 09:11:10;;;;;;;4.53;2.00;;;;;;;4.62;28.01;91576.47;5092103;28;20044;-74
2022/12/12 09:13:36;;;;;;;4.72;2.13;;;;;;;4.40;27.50;91574.28;5093358;28;20096;-74
2022/12/12 09:16:03;;;;;;;5.50;2.50;;;;;;;4.37;30.89;91568.59;5075241;28;20024;-74
2022/12/12 09:18:29;;;;;;;6.05;2.35;;;;;;;3.74;32.98;91579.56;5093537;28;20490;-74
2022/12/12 09:20:57;;;;;;;5.78;2.80;;;;;;;4.01;32.76;91582.78;5091958;28;20067;-74
2022/12/12 09:23:24;;;;;;;4.68;1.90;;;;;;;4.17;29.95;91576.50;5091806;28;20028;-74
2022/12/12 09:25:51;;;;;;;7.10;2.40;;;;;;;3.48;32.45;91586.66;5092887;28;20028;-75
2022/12/12 09:28:18;;;;;;;5.30;2.65;;;;;;;3.42;33.77;91592.09;5091497;28;20498;-74
2022/12/12 09:30:45;;;;;;;5.47;2.70;;;;;;;3.25;33.96;91597.59;5073588;28;20483;-74
2022/12/12 09:33:12;;;;;;;4.60;2.10;;;;;;;3.05;33.33;91594.00;5085778;28;20040;-74
2022/12/12 09:35:38;;;;;;;6.03;2.30;;;;;;;2.88;32.85;91594.31;5082854;28;20063;-74
2022/12/12 09:38:04;;;;;;;7.00;2.58;;;;;;;3.25;33.30;91587.25;5076001;28;20040;-74
2022/12/12 09:40:58;;;;;;;4.63;2.20;;;;;;;3.53;33.00;91594.41;5089550;28;20032;-75
2022/12/12 09:43:38;;;;;;;5.68;2.20;;;;;;;3.19;31.22;91596.03;5078499;28;20032;-74
2022/12/12 09:46:14;;;;;;;10.75;1.83;;;;;;;3.28;32.97;91597.06;5091257;28;20035;-74
2022/12/12 09:48:45;;;;;;;7.43;2.20;;;;;;;3.20;32.44;91595.00;5079040;28;20128;-74
2022/12/12 09:51:12;;;;;;;9.52;2.80;;;;;;;2.75;35.21;91596.63;5103812;28;20029;-74
2022/12/12 09:53:42;;;;;;;8.52;3.10;;;;;;;2.94;35.94;91592.47;5074112;28;20048;-74
2022/12/12 09:56:20;;;;;;;9.43;3.13;;;;;;;2.75;35.16;91591.44;5070788;28;20036;-74
2022/12/12 09:58:54;;;;;;;13.68;2.30;;;;;;;2.59;34.70;91594.06;5073916;28;20490;-74
2022/12/12 10:01:24;;;;;;;3.55;2.00;;;;;;;2.43;34.24;91597.66;5070934;28;20032;-73
2022/12/12 10:03:58;;;;;;;4.80;2.22;;;;;;;2.25;35.25;91594.56;5079630;28;20149;-74
2022/12/12 10:06:28;;;;;;;4.18;1.92;;;;;;;1.96;31.31;91589.09;5088883;28;20044;-74
2022/12/12 10:09:12;;;;;;;10.02;2.63;;;;;;;2.01;33.85;91596.06;5087710;28;20376;-74
2022/12/12 10:11:49;;;;;;;6.22;2.47;;;;;;;2.01;36.65;91602.00;5083553;28;20036;-74
2022/12/12 10:14:19;;;;;;;4.78;2.40;;;;;;;2.17;37.35;91597.63;5092097;28;20120;-73
2022/12/12 10:16:46;;;;;;;8.27;2.70;;;;;;;2.11;36.77;91595.28;5090888;28;20036;-74
2022/12/12 10:19:24;;;;;;;8.10;2.33;;;;;;;1.94;36.54;91590.38;5100480;28;20442;-73
2022/12/12 10:21:55;;;;;;;5.22;2.53;;;;;;;1.86;35.69;91584.66;5089406;28;20490;-73
2022/12/12 10:24:41;;;;;;;3.92;2.17;;;;;;;1.86;35.87;91578.72;5086399;28;20033;-73
2022/12/12 10:27:12;;;;;;;4.95;2.65;;;;;;;2.28;35.62;91578.53;5088176;28;20028;-73
2022/12/12 10:29:42;;;;;;;5.00;2.35;;;;;;;2.19;35.76;91569.75;5082804;28;20393;-74
2022/12/12 10:32:29;;;;;;;4.05;1.92;;;;;;;1.79;36.07;91573.81;5092852;28;20117;-73
2022/12/12 10:35:04;;;;;;;4.97;2.63;;;;;;;2.14;36.81;91568.94;5074647;28;20086;-73
2022/12/12 10:37:51;;;;;;;2.88;1.90;;;;;;;2.04;35.98;91564.56;5078971;28;20035;-73
2022/12/12 10:40:19;;;;;;;7.32;2.03;;;;;;;1.87;35.17;91565.56;5091625;28;20520;-73
2022/12/12 10:43:11;;;;;;;6.63;2.95;;;;;;;2.26;35.65;91562.53;5089115;28;20028;-74
2022/12/12 10:45:49;;;;;;;5.10;2.47;;;;;;;2.48;35.78;91559.69;5071440;28;20024;-73
2022/12/12 10:48:15;;;;;;;4.65;2.10;;;;;;;2.55;36.37;91556.84;5069730;28;20051;-75
2022/12/12 10:50:46;;;;;;;4.45;1.85;;;;;;;2.60;35.79;91558.66;5071150;28;20036;-73
2022/12/12 10:53:12;;;;;;;5.90;2.28;;;;;;;2.50;36.11;91556.84;5071115;28;20123;-73
2022/12/12 10:55:54;;;;;;;5.88;2.55;;;;;;;2.58;36.57;91564.06;5069954;28;20120;-74
2022/12/12 10:58:35;;;;;;;6.93;2.70;;;;;;;3.07;36.72;91560.91;5069975;28;20032;-73
2022/12/12 11:01:09;;;;;;;6.20;2.70;;;;;;;3.26;35.74;91555.16;5069742;28;20414;-73
2022/12/12 11:03:38;;;;;;;6.63;2.50;;;;;;;2.77;35.85;91554.00;5069965;28;20362;-74
2022/12/12 11:06:10;;;;;;;4.88;2.33;;;;;;;3.05;35.91;91554.44;5082781;28;20134;-73
2022/12/12 11:08:36;;;;;;;4.47;2.20;;;;;;;3.11;33.68;91546.41;5090964;28;20508;-73
2022/12/12 11:11:19;;;;;;;5.07;2.40;;;;;;;3.19;33.41;91545.09;5089455;28;20040;-75
2022/12/12 11:13:50;;;;;;;5.20;2.33;;;;;;;3.32;33.11;91536.78;5089930;28;20043;-74
2022/12/12 11:16:20;;;;;;;6.28;2.30;;;;;;;3.13;34.84;91535.81;5091143;28;20035;-74
2022/12/12 11:19:17;;;;;;;5.95;2.53;;;;;;;3.07;34.07;91535.03;5091013;28;20456;-73
2022/12/12 11:21:44;;;;;;;5.07;2.55;;;;;;;3.10;34.60;91544.84;5088809;28;20036;-74
2022/12/12 11:24:16;;;;;;;7.13;2.50;;;;;;;3.42;33.66;91541.13;5072968;28;20039;-74
2022/12/12 11:26:56;;;;;;;4.82;2.38;;;;;;;3.60;34.09;91547.50;5089697;28;20036;-74
2022/12/12 11:29:25;;;;;;;5.43;2.38;;;;;;;3.59;32.95;91550.38;5090136;28;20032;-74
2022/12/12 11:31:50;;;;;;;4.68;2.30;;;;;;;3.89;31.84;91539.88;5091268;28;20028;-73
2022/12/12 11:34:17;;;;;;;4.88;2.10;;;;;;;4.17;31.41;91535.06;5072938;28;20036;-73
2022/12/12 11:36:42;;;;;;;6.28;2.55;;;;;;;3.93;32.24;91540.13;5088313;28;20050;-73
2022/12/12 11:39:20;;;;;;;3.47;2.03;;;;;;;3.90;31.39;91541.44;5071908;28;20416;-73
2022/12/12 11:42:03;;;;;;;6.50;2.55;;;;;;;3.90;31.74;91540.66;5089172;28;20024;-73
2022/12/12 11:44:33;;;;;;;5.80;2.75;;;;;;;4.00;32.25;91545.00;5090777;28;20032;-74
2022/12/12 11:47:20;;;;;;;11.52;2.63;;;;;;;4.08;31.95;91537.44;5090815;28;20028;-74
2022/12/12 11:49:48;;;;;;;5.13;2.50;;;;;;;3.80;31.74;91525.94;5089235;28;20036;-73
2022/12/12 11:52:20;;;;;;;8.93;2.92;;;;;;;4.13;31.86;91519.25;5090580;28;20396;-75
2022/12/12 11:54:46;;;;;;;7.43;3.00;;;;;;;4.33;31.60;91518.34;5090718;28;20078;-75
2022/12/12 11:57:20;;;;;;;12.02;3.50;;;;;;;4.40;31.45;91507.66;5089941;28;20060;-75
2022/12/12 12:00:02;;;;;;;8.20;4.10;;;;;;;4.35;31.33;91494.75;5081559;28;20031;-75
2022/12/12 12:03:01;;;;;;;6.45;2.65;;;;;;;4.40;32.86;91481.75;5100313;28;20521;-75
2022/12/12 12:05:42;;;;;;;8.85;2.70;;;;;;;3.99;34.13;91481.31;5075746;28;20027;-75
2022/12/12 12:08:20;;;;;;;9.82;2.55;;;;;;;3.69;35.27;91477.84;5089118;28;20028;-75